Time;durP1;ratioP1;P1;durP2;ratioP2;P2;SDS_P1;SDS_P2;PMS_P1;PMS_P2;Temp;Humidity;BMP_temperature;BMP_pressure;BME280_temperature;BME280_humidity;BME280_pressure;Samples;Min_cycle;Max_cycle;Signal;HPM_P1;HPM_P2
2021/10/31 00:02:28;;;;;;;1999.90;999.90;;;;;;;6.47;51.48;100369.34;5024552;27;98784;-69
2021/10/31 00:04:56;;;;;;;1999.90;999.90;;;;;;;6.50;51.50;100360.63;5023291;27;97075;-68
2021/10/31 00:07:23;;;;;;;1999.90;999.90;;;;;;;6.53;51.53;100356.31;5026284;27;96933;-69
2021/10/31 00:09:51;;;;;;;1999.90;999.90;;;;;;;6.57;51.57;100359.97;5024739;27;96764;-67
2021/10/31 00:12:19;;;;;;;1999.90;999.90;;;;;;;6.59;51.40;100361.81;5018515;27;99659;-70
2021/10/31 00:14:46;;;;;;;1999.90;999.90;;;;;;;6.61;51.31;100364.50;5023989;27;96784;-69
2021/10/31 00:17:14;;;;;;;1999.90;999.90;;;;;;;6.65;51.76;100364.63;5017813;27;97684;-70
2021/10/31 00:19:43;;;;;;;1999.90;999.90;;;;;;;6.66;51.54;100373.44;5022084;27;99930;-70
2021/10/31 00:22:11;;;;;;;1999.90;999.90;;;;;;;6.68;51.71;100375.31;5024703;27;97898;-70
2021/10/31 00:24:38;;;;;;;1999.90;999.90;;;;;;;6.68;51.55;100387.63;5020815;27;97846;-71
2021/10/31 00:27:06;;;;;;;1999.90;999.90;;;;;;;6.69;51.79;100376.22;5022936;27;97079;-69
2021/10/31 00:29:35;;;;;;;1999.90;999.90;;;;;;;6.67;51.86;100386.72;5023884;27;100502;-72
2021/10/31 00:32:03;;;;;;;1999.90;999.90;;;;;;;6.67;51.94;100388.47;5023891;27;97174;-71
2021/10/31 00:34:31;;;;;;;1999.90;999.90;;;;;;;6.66;51.72;100394.59;5025926;27;96968;-70
2021/10/31 00:37:00;;;;;;;1999.90;999.90;;;;;;;6.64;51.54;100397.22;5023320;27;97214;-71
2021/10/31 00:39:29;;;;;;;1999.90;999.90;;;;;;;6.62;51.58;100398.91;5022973;27;100824;-71
2021/10/31 00:41:57;;;;;;;1999.90;999.90;;;;;;;6.61;51.72;100402.41;5025224;27;98740;-71
2021/10/31 00:44:24;;;;;;;1999.90;999.90;;;;;;;6.60;51.87;100400.59;5023650;27;97017;-70
2021/10/31 00:46:52;;;;;;;1999.90;999.90;;;;;;;6.61;51.90;100404.16;5022665;27;97893;-71
2021/10/31 00:49:20;;;;;;;1999.90;999.90;;;;;;;6.60;51.56;100399.69;5022092;27;99255;-71
2021/10/31 00:51:47;;;;;;;1999.90;999.90;;;;;;;6.59;51.80;100400.56;5025254;27;97613;-71
2021/10/31 00:54:16;;;;;;;1999.90;999.90;;;;;;;6.58;51.78;100393.50;5024055;27;97343;-71
2021/10/31 00:56:44;;;;;;;1999.90;999.90;;;;;;;6.57;51.62;100395.22;5023172;27;97167;-70
2021/10/31 00:59:12;;;;;;;1999.90;999.90;;;;;;;6.56;51.81;100397.84;5022910;27;98134;-71
2021/10/31 01:01:40;;;;;;;1999.90;999.90;;;;;;;6.56;51.86;100400.47;5025786;27;97595;-72
2021/10/31 01:04:08;;;;;;;1999.90;999.90;;;;;;;6.56;52.08;100409.28;5024117;27;97886;-72
2021/10/31 01:07:11;;;;;;;1999.90;999.90;;;;;;;6.55;52.64;100406.59;5019388;27;97005;-71
2021/10/31 01:09:51;;;;;;;1999.90;999.90;;;;;;;6.58;52.77;100409.34;5023565;27;97555;-72
2021/10/31 01:12:33;;;;;;;1999.90;999.90;;;;;;;6.59;52.38;100405.84;5021687;27;97425;-69
2021/10/31 01:15:09;;;;;;;1999.90;999.90;;;;;;;6.61;52.22;100409.44;5022255;27;97501;-71
2021/10/31 01:17:49;;;;;;;1999.90;999.90;;;;;;;6.64;52.51;100417.44;5042694;27;96809;-71
2021/10/31 01:20:24;;;;;;;1999.90;999.90;;;;;;;6.67;52.72;100410.50;5025930;27;99411;-68
2021/10/31 01:23:18;;;;;;;1999.90;999.90;;;;;;;6.67;53.71;100407.88;5027293;27;97546;-71
2021/10/31 01:26:12;;;;;;;1999.90;999.90;;;;;;;6.71;52.79;100408.84;5026886;27;96705;-72
2021/10/31 01:28:50;;;;;;;1999.90;999.90;;;;;;;6.75;52.98;100410.75;5026105;27;97880;-72
2021/10/31 01:31:24;;;;;;;1999.90;999.90;;;;;;;6.77;53.00;100404.66;5027027;27;97113;-73
2021/10/31 01:33:57;;;;;;;1999.90;999.90;;;;;;;6.81;52.57;100411.84;5026200;27;99228;-69
2021/10/31 01:36:33;;;;;;;1999.90;999.90;;;;;;;6.84;52.68;100403.09;5025344;27;97679;-68
2021/10/31 01:39:05;;;;;;;1999.90;999.90;;;;;;;6.87;52.54;100409.38;5024823;27;99272;-69
2021/10/31 01:41:43;;;;;;;1999.90;999.90;;;;;;;6.91;52.79;100415.63;5041667;27;97675;-69
2021/10/31 01:44:21;;;;;;;1999.90;999.90;;;;;;;6.93;52.70;100414.84;5027153;27;99866;-70
2021/10/31 01:46:56;;;;;;;1999.90;999.90;;;;;;;6.95;52.93;100425.47;5025725;27;97306;-70
2021/10/31 01:49:30;;;;;;;1999.90;999.90;;;;;;;6.95;52.84;100413.16;5025315;27;97290;-70
2021/10/31 01:52:03;;;;;;;1999.90;999.90;;;;;;;7.00;52.86;100416.81;5027260;27;98848;-69
2021/10/31 01:54:35;;;;;;;1999.90;999.90;;;;;;;6.99;52.87;100417.69;5026759;27;100965;-70
2021/10/31 01:57:07;;;;;;;1999.90;999.90;;;;;;;7.00;52.98;100414.16;5025071;27;96863;-69
2021/10/31 01:59:38;;;;;;;1999.90;999.90;;;;;;;7.00;52.88;100437.06;5026869;27;96734;-69
2021/10/31 02:02:08;;;;;;;1999.90;999.90;;;;;;;7.00;52.96;100430.03;5025336;27;98895;-69
2021/10/31 02:04:37;;;;;;;1999.90;999.90;;;;;;;7.01;53.11;100425.66;5023399;27;99439;-69
2021/10/31 02:07:06;;;;;;;1999.90;999.90;;;;;;;7.02;53.11;100428.34;5024464;27;98521;-70
2021/10/31 02:09:34;;;;;;;1999.90;999.90;;;;;;;7.01;52.71;100426.56;5026285;27;97505;-69
2021/10/31 02:12:04;;;;;;;1999.90;999.90;;;;;;;7.01;53.19;100434.50;5025312;27;97699;-69
2021/10/31 02:14:33;;;;;;;1999.90;999.90;;;;;;;7.03;53.24;100429.25;5022058;27;97598;-70
2021/10/31 02:17:01;;;;;;;1999.90;999.90;;;;;;;7.03;52.89;100429.25;5021381;27;97405;-69
2021/10/31 02:19:33;;;;;;;1999.90;999.90;;;;;;;7.03;52.95;100418.66;5023188;27;97490;-70
2021/10/31 02:22:02;;;;;;;1999.90;999.90;;;;;;;7.05;52.95;100422.25;5024920;27;100610;-71
2021/10/31 02:24:31;;;;;;;1999.90;999.90;;;;;;;7.05;53.18;100422.25;5025451;27;100773;-70
2021/10/31 02:26:59;;;;;;;1999.90;999.90;;;;;;;7.06;53.58;100430.25;5041262;27;97174;-70
2021/10/31 02:29:26;;;;;;;1999.90;999.90;;;;;;;7.07;53.27;100424.06;5024399;27;97068;-70
2021/10/31 02:31:54;;;;;;;1999.90;999.90;;;;;;;7.06;53.24;100421.38;5025174;27;99372;-69
2021/10/31 02:34:22;;;;;;;1999.90;999.90;;;;;;;7.07;53.37;100437.31;5025136;27;98719;-70
2021/10/31 02:36:50;;;;;;;1999.90;999.90;;;;;;;7.08;53.29;100438.22;5024019;27;98248;-70
2021/10/31 02:39:17;;;;;;;1999.90;999.90;;;;;;;7.08;53.58;100440.84;5022276;27;97479;-70
2021/10/31 02:41:46;;;;;;;1999.90;999.90;;;;;;;7.08;53.24;100452.34;5025915;27;97042;-70
2021/10/31 02:44:14;;;;;;;1999.90;999.90;;;;;;;7.08;53.53;100438.22;5022484;27;100733;-71
2021/10/31 02:46:41;;;;;;;1999.90;999.90;;;;;;;7.08;53.71;100440.84;5025953;27;96876;-70
2021/10/31 02:49:09;;;;;;;1999.90;999.90;;;;;;;7.07;53.33;100444.38;5028275;27;97507;-71
2021/10/31 02:51:42;;;;;;;1999.90;999.90;;;;;;;7.05;53.66;100443.44;5025552;27;100675;-70
2021/10/31 02:54:20;;;;;;;1999.90;999.90;;;;;;;7.05;53.92;100446.06;5007659;27;100679;-71
2021/10/31 02:57:00;;;;;;;1999.90;999.90;;;;;;;7.05;53.60;100454.88;5024348;27;97883;-70
2021/10/31 02:59:43;;;;;;;1999.90;999.90;;;;;;;7.06;53.47;100446.09;5024845;27;97225;-70
2021/10/31 03:02:12;;;;;;;1999.90;999.90;;;;;;;7.09;53.49;100463.84;5021923;27;98791;-71
2021/10/31 03:04:41;;;;;;;1999.90;999.90;;;;;;;7.08;53.62;100457.63;5023617;27;98659;-70
2021/10/31 03:07:09;;;;;;;1999.90;999.90;;;;;;;7.07;53.81;100458.47;5023796;27;97185;-70
2021/10/31 03:09:37;;;;;;;1999.90;999.90;;;;;;;7.08;53.64;100455.00;5025978;27;97731;-69
2021/10/31 03:12:10;;;;;;;1999.90;999.90;;;;;;;7.08;53.83;100462.03;5025137;27;97064;-70
2021/10/31 03:14:37;;;;;;;1999.90;999.90;;;;;;;7.08;53.88;100462.03;5027090;27;97532;-70
2021/10/31 03:17:06;;;;;;;1999.90;999.90;;;;;;;7.07;53.80;100468.19;5022703;27;97866;-71
2021/10/31 03:19:35;;;;;;;1999.90;999.90;;;;;;;7.07;53.90;100462.88;5024722;27;96847;-71
2021/10/31 03:22:04;;;;;;;1999.90;999.90;;;;;;;7.06;53.90;100458.44;5023442;27;97612;-70
2021/10/31 03:24:31;;;;;;;1999.90;999.90;;;;;;;7.05;53.84;100454.88;5022890;27;97797;-72
2021/10/31 03:26:59;;;;;;;1999.90;999.90;;;;;;;7.03;54.06;100469.84;5023967;27;97546;-69
2021/10/31 03:29:28;;;;;;;1999.90;999.90;;;;;;;7.04;53.82;100470.72;5023780;27;97709;-71
2021/10/31 03:31:56;;;;;;;1999.90;999.90;;;;;;;7.03;54.19;100463.63;5024509;27;97630;-71
2021/10/31 03:34:24;;;;;;;1999.90;999.90;;;;;;;7.01;54.07;100466.25;5023070;27;99191;-71
2021/10/31 03:36:52;;;;;;;1999.90;999.90;;;;;;;7.01;53.89;100473.28;5017667;27;97204;-72
2021/10/31 03:39:20;;;;;;;1999.90;999.90;;;;;;;6.98;54.34;100474.06;5024869;27;97189;-68
2021/10/31 03:41:48;;;;;;;1999.90;999.90;;;;;;;6.98;54.13;100468.78;5024231;27;99125;-70
2021/10/31 03:44:17;;;;;;;1999.90;999.90;;;;;;;6.98;54.33;100467.91;5026066;27;96860;-72
2021/10/31 03:46:47;;;;;;;1999.90;999.90;;;;;;;6.96;54.55;100469.59;5015785;27;98997;-69
2021/10/31 03:49:15;;;;;;;1999.90;999.90;;;;;;;6.96;54.31;100475.75;5023374;27;96830;-72
2021/10/31 03:51:43;;;;;;;1999.90;999.90;;;;;;;6.97;54.43;100468.75;5024514;27;99950;-72
2021/10/31 03:54:11;;;;;;;1999.90;999.90;;;;;;;6.96;54.61;100470.47;5025853;27;98017;-72
2021/10/31 03:56:40;;;;;;;1999.90;999.90;;;;;;;6.96;54.29;100480.19;5022319;27;97367;-71
2021/10/31 03:59:07;;;;;;;1999.90;999.90;;;;;;;6.96;54.21;100489.00;5023542;27;96826;-70
2021/10/31 04:01:35;;;;;;;1999.90;999.90;;;;;;;6.96;54.56;100480.19;5024733;27;100270;-72
2021/10/31 04:04:05;;;;;;;1999.90;999.90;;;;;;;6.94;54.49;100480.09;5024657;27;97639;-71
2021/10/31 04:06:32;;;;;;;1999.90;999.90;;;;;;;6.93;54.51;100483.63;5023355;27;97914;-72
2021/10/31 04:09:01;;;;;;;1999.90;999.90;;;;;;;6.95;54.37;100483.66;5025380;27;96937;-70
2021/10/31 04:11:29;;;;;;;1999.90;999.90;;;;;;;6.94;54.61;100476.59;5026088;27;97844;-70
2021/10/31 04:13:57;;;;;;;1999.90;999.90;;;;;;;6.90;54.63;100475.59;5022976;27;98929;-70
2021/10/31 04:16:25;;;;;;;1999.90;999.90;;;;;;;6.89;54.66;100483.50;5021791;27;97000;-70
2021/10/31 04:18:53;;;;;;;1999.90;999.90;;;;;;;6.87;54.39;100487.84;5019836;27;97657;-70
2021/10/31 04:21:22;;;;;;;1999.90;999.90;;;;;;;6.86;54.46;100497.50;5023052;27;96949;-69
2021/10/31 04:23:49;;;;;;;1999.90;999.90;;;;;;;6.85;54.71;100500.09;5023282;27;99351;-68
2021/10/31 04:26:17;;;;;;;1999.90;999.90;;;;;;;6.84;54.89;100506.22;5018438;27;98999;-68
2021/10/31 04:28:45;;;;;;;1999.90;999.90;;;;;;;6.81;55.13;100508.78;5022855;27;96821;-69
2021/10/31 04:31:12;;;;;;;1999.90;999.90;;;;;;;6.80;54.54;100505.22;5019987;27;99335;-70
2021/10/31 04:33:40;;;;;;;1999.90;999.90;;;;;;;6.78;54.87;100496.34;5023072;27;97825;-70
2021/10/31 04:36:08;;;;;;;1999.90;999.90;;;;;;;6.74;54.81;100494.50;5021247;27;97243;-69
2021/10/31 04:38:37;;;;;;;1999.90;999.90;;;;;;;6.72;54.70;100501.47;5023245;27;96872;-70
2021/10/31 04:41:05;;;;;;;1999.90;999.90;;;;;;;6.70;54.99;100496.97;5021964;27;99343;-68
2021/10/31 04:43:33;;;;;;;1999.90;999.90;;;;;;;6.67;54.92;100496.88;5023530;27;97643;-70
2021/10/31 04:46:01;;;;;;;1999.90;999.90;;;;;;;6.65;54.88;100490.66;5023533;27;97985;-69
2021/10/31 04:48:29;;;;;;;1999.90;999.90;;;;;;;6.64;55.45;100496.75;5019326;27;96975;-70
2021/10/31 04:50:56;;;;;;;1999.90;999.90;;;;;;;6.61;54.97;100499.31;5023729;27;97682;-69
2021/10/31 04:53:25;;;;;;;1999.90;999.90;;;;;;;6.60;55.15;100502.78;5022001;27;100340;-68
2021/10/31 04:55:54;;;;;;;1999.90;999.90;;;;;;;6.57;55.56;100502.69;5027910;27;97600;-68
2021/10/31 04:58:21;;;;;;;1999.90;999.90;;;;;;;6.57;55.20;100510.63;5026251;27;97361;-69
2021/10/31 05:00:49;;;;;;;1999.90;999.90;;;;;;;6.55;55.19;100512.31;5019630;27;100419;-70
2021/10/31 05:03:17;;;;;;;1999.90;999.90;;;;;;;6.54;55.27;100513.19;5023527;27;99036;-68
2021/10/31 05:05:44;;;;;;;1999.90;999.90;;;;;;;6.50;55.63;100514.84;5024173;27;96883;-72
2021/10/31 05:08:12;;;;;;;1999.90;999.90;;;;;;;6.48;55.42;100515.63;5023349;27;99355;-70
2021/10/31 05:10:40;;;;;;;1999.90;999.90;;;;;;;6.44;55.29;100514.63;5026451;27;100417;-72
2021/10/31 05:13:09;;;;;;;1999.90;999.90;;;;;;;6.43;55.49;100512.84;5027128;27;98711;-68
2021/10/31 05:15:37;;;;;;;1999.90;999.90;;;;;;;6.40;55.59;100512.72;5027142;27;97377;-70
2021/10/31 05:18:05;;;;;;;1999.90;999.90;;;;;;;6.37;55.83;100509.06;5024606;27;96715;-69
2021/10/31 05:20:33;;;;;;;1999.90;999.90;;;;;;;6.36;55.60;100512.56;5026630;27;99385;-69
2021/10/31 05:23:00;;;;;;;1999.90;999.90;;;;;;;6.34;55.55;100506.34;5025139;27;98405;-70
2021/10/31 05:25:28;;;;;;;1999.90;999.90;;;;;;;6.33;55.85;100510.72;5024041;27;96888;-71
2021/10/31 05:27:56;;;;;;;1999.90;999.90;;;;;;;6.32;56.00;100513.31;5024421;27;97367;-70
2021/10/31 05:30:25;;;;;;;1999.90;999.90;;;;;;;6.31;55.85;100516.78;5024673;27;97462;-70
2021/10/31 05:32:52;;;;;;;1999.90;999.90;;;;;;;6.29;55.71;100508.81;5026344;27;97113;-69
2021/10/31 05:35:20;;;;;;;1999.90;999.90;;;;;;;6.30;55.73;100520.28;5026364;27;97176;-71
2021/10/31 05:37:55;;;;;;;1999.90;999.90;;;;;;;6.29;55.74;100514.09;5025635;27;97395;-71
2021/10/31 05:40:24;;;;;;;1999.90;999.90;;;;;;;6.27;55.96;100512.28;4997675;27;99262;-71
2021/10/31 05:42:51;;;;;;;1999.90;999.90;;;;;;;6.25;56.09;100510.41;5024888;27;97968;-71
2021/10/31 05:45:19;;;;;;;1999.90;999.90;;;;;;;6.25;55.71;100518.34;5022698;27;99630;-69
2021/10/31 05:47:48;;;;;;;1999.90;999.90;;;;;;;6.24;56.17;100526.22;5022493;27;97300;-70
2021/10/31 05:50:17;;;;;;;1999.90;999.90;;;;;;;6.23;55.76;100525.31;5025453;27;97754;-74
2021/10/31 05:52:45;;;;;;;1999.90;999.90;;;;;;;6.21;56.11;100527.00;5024992;27;100912;-71
2021/10/31 05:55:15;;;;;;;1999.90;999.90;;;;;;;6.22;56.13;100525.28;5023428;27;97411;-71
2021/10/31 05:57:46;;;;;;;1999.90;999.90;;;;;;;6.21;56.16;100521.72;5022811;27;97520;-71
2021/10/31 06:00:15;;;;;;;1999.90;999.90;;;;;;;6.20;56.01;100516.41;5023831;27;98568;-71
2021/10/31 06:02:43;;;;;;;1999.90;999.90;;;;;;;6.18;56.28;100518.06;5023238;27;99247;-71
2021/10/31 06:05:13;;;;;;;1999.90;999.90;;;;;;;6.19;56.17;100522.53;5022188;27;97522;-71
2021/10/31 06:07:41;;;;;;;1999.90;999.90;;;;;;;6.19;56.21;100531.38;5026764;27;97176;-71
2021/10/31 06:10:09;;;;;;;1999.90;999.90;;;;;;;6.18;56.24;100529.56;5024093;27;97841;-71
2021/10/31 06:12:37;;;;;;;1999.90;999.90;;;;;;;6.18;56.12;100521.63;5025362;27;100715;-71
2021/10/31 06:15:08;;;;;;;1999.90;999.90;;;;;;;6.17;56.24;100522.50;5025265;27;97208;-70
2021/10/31 06:17:38;;;;;;;1999.90;999.90;;;;;;;6.18;56.22;100526.00;5025013;27;97904;-70
2021/10/31 06:20:07;;;;;;;1999.90;999.90;;;;;;;6.19;56.19;100522.53;5009978;27;100295;-68
2021/10/31 06:22:36;;;;;;;1999.90;999.90;;;;;;;6.19;56.39;100525.19;5020368;27;100084;-70
2021/10/31 06:25:05;;;;;;;1999.90;999.90;;;;;;;6.18;56.56;100521.63;5020294;27;97786;-68
2021/10/31 06:27:33;;;;;;;1999.90;999.90;;;;;;;6.19;56.41;100525.19;5020380;27;98318;-68
2021/10/31 06:30:04;;;;;;;1999.90;999.90;;;;;;;6.19;56.42;100522.53;5023207;27;97166;-69
2021/10/31 06:32:31;;;;;;;1999.90;999.90;;;;;;;6.18;56.65;100529.56;5024430;27;98880;-69
2021/10/31 06:34:59;;;;;;;1999.90;999.90;;;;;;;6.18;56.38;100531.28;5022461;27;96956;-70
2021/10/31 06:37:27;;;;;;;1999.90;999.90;;;;;;;6.17;56.72;100537.44;5024680;27;99007;-69
2021/10/31 06:39:56;;;;;;;1999.90;999.90;;;;;;;6.16;56.59;100539.16;5024113;27;97267;-69
2021/10/31 06:42:26;;;;;;;1999.90;999.90;;;;;;;6.16;56.84;100539.16;5024473;27;100525;-69
2021/10/31 06:44:54;;;;;;;1999.90;999.90;;;;;;;6.15;56.67;100549.69;5026290;27;97140;-70
2021/10/31 06:47:23;;;;;;;1999.90;999.90;;;;;;;6.15;56.58;100547.03;5024831;27;98957;-70
2021/10/31 06:49:51;;;;;;;1999.90;999.90;;;;;;;6.15;56.63;100547.94;5024894;27;98899;-69
2021/10/31 06:52:19;;;;;;;1999.90;999.90;;;;;;;6.15;56.82;100547.94;5025231;27;97531;-70
2021/10/31 06:54:47;;;;;;;1999.90;999.90;;;;;;;6.18;56.89;100542.75;5024910;27;97725;-69
2021/10/31 06:57:16;;;;;;;1999.90;999.90;;;;;;;6.19;56.67;100548.97;5025020;27;97185;-69
2021/10/31 06:59:44;;;;;;;1999.90;999.90;;;;;;;6.19;56.90;100555.16;5024175;27;97712;-69
2021/10/31 07:02:11;;;;;;;1999.90;999.90;;;;;;;6.21;56.67;100560.47;5024036;27;99188;-69
2021/10/31 07:04:39;;;;;;;1999.90;999.90;;;;;;;6.21;56.54;100566.63;5019734;27;97637;-69
2021/10/31 07:07:07;;;;;;;1999.90;999.90;;;;;;;6.23;56.57;100556.16;5024305;27;97823;-69
2021/10/31 07:09:35;;;;;;;1999.90;999.90;;;;;;;6.24;56.81;100550.91;5024919;27;99341;-68
2021/10/31 07:12:03;;;;;;;1999.90;999.90;;;;;;;6.25;56.59;100563.25;5024202;27;99152;-68
2021/10/31 07:14:33;;;;;;;1999.90;999.90;;;;;;;6.26;56.94;100566.81;5024172;27;97283;-69
2021/10/31 07:17:00;;;;;;;1999.90;999.90;;;;;;;6.27;57.06;100559.81;5026281;27;97290;-69
2021/10/31 07:19:28;;;;;;;1999.90;999.90;;;;;;;6.28;56.85;100553.69;5024330;27;98847;-71
2021/10/31 07:21:56;;;;;;;1999.90;999.90;;;;;;;6.30;56.80;100541.44;5014087;27;99395;-70
2021/10/31 07:24:23;;;;;;;1999.90;999.90;;;;;;;6.32;56.68;100545.94;5020637;27;97798;-68
2021/10/31 07:26:51;;;;;;;1999.90;999.90;;;;;;;6.34;57.16;100551.25;5020389;27;97801;-69
2021/10/31 07:29:19;;;;;;;1999.90;999.90;;;;;;;6.37;56.78;100554.00;5021210;27;97908;-70
2021/10/31 07:31:50;;;;;;;1999.90;999.90;;;;;;;6.37;56.67;100556.66;5021903;27;100364;-70
2021/10/31 07:34:18;;;;;;;1999.90;999.90;;;;;;;6.39;56.90;100554.94;5020395;27;98092;-70
2021/10/31 07:36:46;;;;;;;1999.90;999.90;;;;;;;6.41;57.13;100561.19;5018498;27;98104;-70
2021/10/31 07:39:14;;;;;;;1999.90;999.90;;;;;;;6.42;56.72;100552.41;5022127;27;100695;-70
2021/10/31 07:41:41;;;;;;;1999.90;999.90;;;;;;;6.44;56.96;100551.63;5021495;27;99021;-69
2021/10/31 07:44:09;;;;;;;1999.90;999.90;;;;;;;6.46;57.16;100559.59;5020192;27;98107;-68
2021/10/31 07:46:37;;;;;;;1999.90;999.90;;;;;;;6.52;57.23;100557.16;5021121;27;97988;-69
2021/10/31 07:49:09;;;;;;;1999.90;999.90;;;;;;;6.54;57.25;100553.75;5014850;27;100726;-70
2021/10/31 07:51:37;;;;;;;1999.90;999.90;;;;;;;6.57;56.87;100563.50;5022479;27;98624;-71
2021/10/31 07:54:05;;;;;;;1999.90;999.90;;;;;;;6.59;56.65;100565.38;5022076;27;99317;-72
2021/10/31 07:56:35;;;;;;;1999.90;999.90;;;;;;;6.64;56.86;100568.16;5022700;27;97245;-71
2021/10/31 07:59:03;;;;;;;1999.90;999.90;;;;;;;6.66;56.98;100564.72;5020964;27;99640;-70
2021/10/31 08:01:31;;;;;;;1999.90;999.90;;;;;;;6.69;57.16;100569.22;5020919;27;98807;-71
2021/10/31 08:03:59;;;;;;;1999.90;999.90;;;;;;;6.73;57.13;100571.09;5023928;27;97068;-70
2021/10/31 08:06:28;;;;;;;1999.90;999.90;;;;;;;6.77;56.99;100571.25;5023891;27;97109;-71
2021/10/31 08:08:55;;;;;;;1999.90;999.90;;;;;;;6.80;56.80;100563.41;5021410;27;98857;-71
2021/10/31 08:11:23;;;;;;;1999.90;999.90;;;;;;;6.85;56.80;100560.94;5023659;27;99309;-71
2021/10/31 08:13:51;;;;;;;1999.90;999.90;;;;;;;6.89;57.07;100553.13;5021861;27;97163;-72
2021/10/31 08:16:20;;;;;;;1999.90;999.90;;;;;;;6.92;56.89;100542.69;5006986;27;97363;-71
2021/10/31 08:18:48;;;;;;;1999.90;999.90;;;;;;;6.96;56.98;100535.72;5024587;27;98223;-70
2021/10/31 08:21:15;;;;;;;1999.90;999.90;;;;;;;7.01;56.91;100542.97;5002286;27;99218;-70
2021/10/31 08:23:45;;;;;;;1999.90;999.90;;;;;;;7.02;57.04;100531.50;5043149;27;96898;-70
2021/10/31 08:26:12;;;;;;;1999.90;999.90;;;;;;;7.05;56.99;100528.97;5023353;27;97987;-70
2021/10/31 08:28:40;;;;;;;1999.90;999.90;;;;;;;7.07;56.69;100515.81;5024584;27;97609;-71
2021/10/31 08:31:08;;;;;;;1999.90;999.90;;;;;;;7.09;56.83;100519.41;5025239;27;97750;-71
2021/10/31 08:33:43;;;;;;;1999.90;999.90;;;;;;;7.13;56.96;100511.56;5024354;27;97949;-69
2021/10/31 08:36:12;;;;;;;1999.90;999.90;;;;;;;7.16;56.79;100521.38;5017021;27;97604;-71
2021/10/31 08:38:40;;;;;;;1999.90;999.90;;;;;;;7.19;56.65;100511.78;5021129;27;97825;-72
2021/10/31 08:41:09;;;;;;;1999.90;999.90;;;;;;;7.23;56.89;100505.72;5021822;27;98038;-72
2021/10/31 08:43:39;;;;;;;1999.90;999.90;;;;;;;7.25;56.81;100516.34;5021029;27;97258;-71
2021/10/31 08:46:07;;;;;;;1999.90;999.90;;;;;;;7.27;56.58;100514.66;5015770;27;97844;-72
2021/10/31 08:48:37;;;;;;;1999.90;999.90;;;;;;;7.30;56.93;100509.44;5018653;27;97681;-71
2021/10/31 08:51:05;;;;;;;1999.90;999.90;;;;;;;7.32;56.77;100507.75;5016784;27;97713;-71
2021/10/31 08:53:34;;;;;;;1999.90;999.90;;;;;;;7.36;56.68;100516.66;5034087;27;97420;-72
2021/10/31 08:56:02;;;;;;;1999.90;999.90;;;;;;;7.39;56.76;100519.41;5017029;27;97989;-71
2021/10/31 08:58:31;;;;;;;1999.90;999.90;;;;;;;7.41;56.53;100518.63;5034771;27;100325;-71
2021/10/31 09:00:59;;;;;;;1999.90;999.90;;;;;;;7.47;56.92;100520.56;5021092;27;97564;-70
2021/10/31 09:03:27;;;;;;;1999.90;999.90;;;;;;;7.51;56.77;100514.53;5003536;27;97700;-69
2021/10/31 09:05:55;;;;;;;1999.90;999.90;;;;;;;7.54;56.76;100520.81;5023431;27;97103;-71
2021/10/31 09:08:23;;;;;;;1999.90;999.90;;;;;;;7.59;56.62;100508.59;5015806;27;97827;-71
2021/10/31 09:10:52;;;;;;;1999.90;999.90;;;;;;;7.64;56.57;100501.66;5023122;27;98149;-71
2021/10/31 09:13:20;;;;;;;1999.90;999.90;;;;;;;7.65;56.68;100507.84;5023657;27;96870;-70
2021/10/31 09:15:50;;;;;;;1999.90;999.90;;;;;;;7.66;56.76;100509.63;5020081;27;97251;-71
2021/10/31 09:18:18;;;;;;;1999.90;999.90;;;;;;;7.68;56.63;100498.25;5020527;27;99800;-71
2021/10/31 09:20:46;;;;;;;1999.90;999.90;;;;;;;7.70;56.71;100499.19;5019020;27;99211;-70
2021/10/31 09:23:14;;;;;;;1999.90;999.90;;;;;;;7.72;56.63;100496.56;5022858;27;97530;-70
2021/10/31 09:25:42;;;;;;;1999.90;999.90;;;;;;;7.76;56.68;100495.81;5023317;27;97484;-72
2021/10/31 09:28:10;;;;;;;1999.90;999.90;;;;;;;7.79;56.65;100495.91;5020502;27;99363;-70
2021/10/31 09:30:39;;;;;;;1999.90;999.90;;;;;;;7.83;56.58;100492.47;5022392;27;97662;-73
2021/10/31 09:33:10;;;;;;;1999.90;999.90;;;;;;;7.87;56.57;100494.38;5023680;27;96779;-70
2021/10/31 09:35:43;;;;;;;1999.90;999.90;;;;;;;7.89;56.40;100490.00;5023748;27;97262;-71
2021/10/31 09:38:12;;;;;;;1999.90;999.90;;;;;;;7.92;56.48;100493.63;5025384;27;99069;-70
2021/10/31 09:40:40;;;;;;;1999.90;999.90;;;;;;;7.95;56.29;100487.50;5025086;27;97549;-72
2021/10/31 09:43:07;;;;;;;1999.90;999.90;;;;;;;7.98;56.41;100493.78;5021337;27;97312;-71
2021/10/31 09:45:36;;;;;;;1999.90;999.90;;;;;;;8.03;56.49;100491.25;5024505;27;97070;-72
2021/10/31 09:48:06;;;;;;;1999.90;999.90;;;;;;;8.05;56.40;100487.81;5023335;27;98643;-72
2021/10/31 09:50:37;;;;;;;1999.90;999.90;;;;;;;8.09;56.51;100487.00;5024034;27;99706;-71
2021/10/31 09:53:05;;;;;;;1999.90;999.90;;;;;;;8.15;56.41;100489.84;5019405;27;97102;-71
2021/10/31 09:55:33;;;;;;;1999.90;999.90;;;;;;;8.19;56.57;100493.44;5024955;27;96848;-69
2021/10/31 09:58:03;;;;;;;1999.90;999.90;;;;;;;8.23;56.13;100488.28;5021901;27;100606;-70
2021/10/31 10:00:37;;;;;;;1999.90;999.90;;;;;;;8.30;56.50;100491.06;5018436;27;100612;-69
2021/10/31 10:03:36;;;;;;;1999.90;999.90;;;;;;;8.37;56.18;100485.09;5033349;27;97690;-71
2021/10/31 10:06:14;;;;;;;1999.90;999.90;;;;;;;8.46;56.42;100482.69;5022563;27;98115;-68
2021/10/31 10:08:56;;;;;;;1999.90;999.90;;;;;;;8.52;56.82;100483.75;5023349;27;97808;-70
2021/10/31 10:11:24;;;;;;;1999.90;999.90;;;;;;;8.59;55.95;100482.13;5003019;27;99285;-69
2021/10/31 10:13:52;;;;;;;1999.90;999.90;;;;;;;8.63;55.84;100484.91;5022590;27;97520;-71
2021/10/31 10:16:24;;;;;;;1999.90;999.90;;;;;;;8.68;55.84;100466.44;5002981;27;97316;-71
2021/10/31 10:18:55;;;;;;;1999.90;999.90;;;;;;;8.74;55.89;100464.84;5022450;27;98028;-71
2021/10/31 10:21:25;;;;;;;1999.90;999.90;;;;;;;8.82;55.79;100459.72;5013202;27;97890;-71
2021/10/31 10:23:56;;;;;;;1999.90;999.90;;;;;;;8.87;55.88;100456.31;5019379;27;97278;-70
2021/10/31 10:26:34;;;;;;;1999.90;999.90;;;;;;;8.95;55.66;100448.53;5016278;27;99123;-70
2021/10/31 10:29:11;;;;;;;1999.90;999.90;;;;;;;9.02;55.93;100443.34;5018124;27;100774;-70
2021/10/31 10:31:40;;;;;;;1999.90;999.90;;;;;;;9.09;55.74;100447.06;5019795;27;98618;-71
2021/10/31 10:34:08;;;;;;;1999.90;999.90;;;;;;;9.16;55.37;100436.59;5018008;27;97519;-71
2021/10/31 10:36:40;;;;;;;1999.90;999.90;;;;;;;9.22;55.31;100442.03;5016833;27;97260;-71
2021/10/31 10:39:09;;;;;;;1999.90;999.90;;;;;;;9.29;55.45;100435.09;5020789;27;98187;-73
2021/10/31 10:41:40;;;;;;;1999.90;999.90;;;;;;;9.35;55.35;100435.25;5014073;27;98205;-73
2021/10/31 10:44:27;;;;;;;1999.90;999.90;;;;;;;9.42;55.51;100429.19;5020769;27;98068;-73
2021/10/31 10:46:57;;;;;;;1999.90;999.90;;;;;;;9.48;55.24;100429.31;5018713;27;98386;-71
2021/10/31 10:49:26;;;;;;;1999.90;999.90;;;;;;;9.56;55.20;100424.16;5020916;27;98974;-71
2021/10/31 10:52:10;;;;;;;1999.90;999.90;;;;;;;9.63;55.51;100424.31;5020830;27;99795;-71
2021/10/31 10:54:40;;;;;;;1999.90;999.90;;;;;;;9.69;55.10;100421.78;5020758;27;97885;-71
2021/10/31 10:57:09;;;;;;;1999.90;999.90;;;;;;;9.73;55.00;100413.00;5022032;27;98562;-69
2021/10/31 10:59:37;;;;;;;1999.90;999.90;;;;;;;9.80;55.07;100408.69;5019657;27;97970;-71
2021/10/31 11:02:09;;;;;;;1999.90;999.90;;;;;;;9.87;55.11;100414.13;5022412;27;97569;-71
2021/10/31 11:04:38;;;;;;;1999.90;999.90;;;;;;;9.93;54.86;100408.94;5021743;27;98676;-71
2021/10/31 11:07:08;;;;;;;1999.90;999.90;;;;;;;9.99;55.00;100400.19;5022357;27;97395;-71